sensor_id;sensor_type;location;lat;lon;timestamp;P1;durP1;ratioP1;P2;durP2;ratioP2
63016;SDS011;50274;45.640;11.756;2024-02-26T00:01:43;9.73;;;5.93;;
63016;SDS011;50274;45.640;11.756;2024-02-26T00:04:09;13.90;;;7.10;;
63016;SDS011;50274;45.640;11.756;2024-02-26T00:06:36;10.20;;;6.47;;
63016;SDS011;50274;45.640;11.756;2024-02-26T00:09:02;11.57;;;6.78;;
63016;SDS011;50274;45.640;11.756;2024-02-26T00:11:31;11.65;;;6.53;;
63016;SDS011;50274;45.640;11.756;2024-02-26T00:13:57;11.10;;;6.43;;
63016;SDS011;50274;45.640;11.756;2024-02-26T00:16:23;11.18;;;6.75;;
63016;SDS011;50274;45.640;11.756;2024-02-26T00:18:49;11.77;;;7.35;;
63016;SDS011;50274;45.640;11.756;2024-02-26T00:21:15;10.40;;;6.47;;
63016;SDS011;50274;45.640;11.756;2024-02-26T00:23:41;11.80;;;7.23;;
63016;SDS011;50274;45.640;11.756;2024-02-26T00:26:07;15.77;;;7.60;;
63016;SDS011;50274;45.640;11.756;2024-02-26T00:28:33;12.43;;;7.10;;
63016;SDS011;50274;45.640;11.756;2024-02-26T00:30:59;11.43;;;7.15;;
63016;SDS011;50274;45.640;11.756;2024-02-26T00:33:25;11.73;;;6.97;;
63016;SDS011;50274;45.640;11.756;2024-02-26T00:35:50;10.75;;;6.32;;
63016;SDS011;50274;45.640;11.756;2024-02-26T00:38:16;10.47;;;6.80;;
63016;SDS011;50274;45.640;11.756;2024-02-26T00:40:42;11.00;;;6.90;;
63016;SDS011;50274;45.640;11.756;2024-02-26T00:43:08;10.15;;;6.90;;
63016;SDS011;50274;45.640;11.756;2024-02-26T00:45:34;10.30;;;6.38;;
63016;SDS011;50274;45.640;11.756;2024-02-26T00:48:00;9.93;;;6.30;;
63016;SDS011;50274;45.640;11.756;2024-02-26T00:50:32;12.50;;;6.57;;
63016;SDS011;50274;45.640;11.756;2024-02-26T00:52:59;12.30;;;7.10;;
63016;SDS011;50274;45.640;11.756;2024-02-26T00:55:25;9.75;;;6.20;;
63016;SDS011;50274;45.640;11.756;2024-02-26T00:57:51;9.77;;;6.47;;
63016;SDS011;50274;45.640;11.756;2024-02-26T01:00:17;11.05;;;6.45;;
63016;SDS011;50274;45.640;11.756;2024-02-26T01:02:43;9.07;;;6.03;;
63016;SDS011;50274;45.640;11.756;2024-02-26T01:05:11;9.40;;;6.20;;
63016;SDS011;50274;45.640;11.756;2024-02-26T01:07:38;10.43;;;6.10;;
63016;SDS011;50274;45.640;11.756;2024-02-26T01:10:05;9.70;;;6.13;;
63016;SDS011;50274;45.640;11.756;2024-02-26T01:12:32;10.52;;;6.55;;
63016;SDS011;50274;45.640;11.756;2024-02-26T01:14:59;10.50;;;6.40;;
63016;SDS011;50274;45.640;11.756;2024-02-26T01:17:25;9.47;;;5.87;;
63016;SDS011;50274;45.640;11.756;2024-02-26T01:19:51;8.93;;;6.20;;
63016;SDS011;50274;45.640;11.756;2024-02-26T01:22:18;9.93;;;6.30;;
63016;SDS011;50274;45.640;11.756;2024-02-26T01:24:44;9.63;;;6.20;;
63016;SDS011;50274;45.640;11.756;2024-02-26T01:27:10;11.55;;;6.50;;
63016;SDS011;50274;45.640;11.756;2024-02-26T01:29:36;8.73;;;5.95;;
63016;SDS011;50274;45.640;11.756;2024-02-26T01:32:02;10.07;;;5.67;;
63016;SDS011;50274;45.640;11.756;2024-02-26T01:34:30;11.75;;;6.53;;
63016;SDS011;50274;45.640;11.756;2024-02-26T01:36:55;11.82;;;6.38;;
63016;SDS011;50274;45.640;11.756;2024-02-26T01:39:21;9.57;;;6.17;;
63016;SDS011;50274;45.640;11.756;2024-02-26T01:41:47;9.80;;;6.03;;
63016;SDS011;50274;45.640;11.756;2024-02-26T01:44:13;9.18;;;5.75;;
63016;SDS011;50274;45.640;11.756;2024-02-26T01:46:39;8.30;;;5.90;;
63016;SDS011;50274;45.640;11.756;2024-02-26T01:49:05;11.03;;;6.00;;
63016;SDS011;50274;45.640;11.756;2024-02-26T01:51:33;8.95;;;5.20;;
63016;SDS011;50274;45.640;11.756;2024-02-26T01:54:00;9.68;;;5.30;;
63016;SDS011;50274;45.640;11.756;2024-02-26T01:56:28;8.32;;;4.93;;
63016;SDS011;50274;45.640;11.756;2024-02-26T01:58:58;8.65;;;5.28;;
63016;SDS011;50274;45.640;11.756;2024-02-26T02:01:25;10.90;;;5.40;;
63016;SDS011;50274;45.640;11.756;2024-02-26T02:03:52;9.20;;;5.25;;
63016;SDS011;50274;45.640;11.756;2024-02-26T02:06:19;9.30;;;5.78;;
63016;SDS011;50274;45.640;11.756;2024-02-26T02:08:46;7.63;;;4.88;;
63016;SDS011;50274;45.640;11.756;2024-02-26T02:11:12;7.80;;;5.00;;
63016;SDS011;50274;45.640;11.756;2024-02-26T02:13:39;7.38;;;4.72;;
63016;SDS011;50274;45.640;11.756;2024-02-26T02:16:05;8.52;;;4.63;;
63016;SDS011;50274;45.640;11.756;2024-02-26T02:18:32;9.27;;;5.03;;
63016;SDS011;50274;45.640;11.756;2024-02-26T02:21:01;10.30;;;4.70;;
63016;SDS011;50274;45.640;11.756;2024-02-26T02:23:27;7.55;;;4.50;;
63016;SDS011;50274;45.640;11.756;2024-02-26T02:25:53;8.45;;;4.72;;
63016;SDS011;50274;45.640;11.756;2024-02-26T02:28:22;8.02;;;4.63;;
63016;SDS011;50274;45.640;11.756;2024-02-26T02:30:50;9.93;;;4.50;;
63016;SDS011;50274;45.640;11.756;2024-02-26T02:33:16;7.70;;;4.18;;
63016;SDS011;50274;45.640;11.756;2024-02-26T02:35:42;9.05;;;4.57;;
63016;SDS011;50274;45.640;11.756;2024-02-26T02:38:08;8.93;;;5.07;;
63016;SDS011;50274;45.640;11.756;2024-02-26T02:40:34;9.33;;;5.07;;
63016;SDS011;50274;45.640;11.756;2024-02-26T02:43:00;8.38;;;4.70;;
63016;SDS011;50274;45.640;11.756;2024-02-26T02:45:27;7.60;;;4.43;;
63016;SDS011;50274;45.640;11.756;2024-02-26T02:47:53;9.63;;;4.65;;
63016;SDS011;50274;45.640;11.756;2024-02-26T02:50:19;7.60;;;4.00;;
63016;SDS011;50274;45.640;11.756;2024-02-26T02:52:45;8.05;;;4.07;;
63016;SDS011;50274;45.640;11.756;2024-02-26T02:55:11;8.48;;;4.72;;
63016;SDS011;50274;45.640;11.756;2024-02-26T02:57:37;7.53;;;4.38;;
63016;SDS011;50274;45.640;11.756;2024-02-26T03:00:08;9.20;;;4.47;;
63016;SDS011;50274;45.640;11.756;2024-02-26T03:02:35;7.63;;;3.95;;
63016;SDS011;50274;45.640;11.756;2024-02-26T03:05:02;7.25;;;4.03;;
63016;SDS011;50274;45.640;11.756;2024-02-26T03:07:28;8.52;;;4.65;;
63016;SDS011;50274;45.640;11.756;2024-02-26T03:09:54;7.97;;;4.43;;
63016;SDS011;50274;45.640;11.756;2024-02-26T03:12:20;7.15;;;3.85;;
63016;SDS011;50274;45.640;11.756;2024-02-26T03:14:46;7.47;;;3.95;;
63016;SDS011;50274;45.640;11.756;2024-02-26T03:17:12;7.87;;;4.00;;
63016;SDS011;50274;45.640;11.756;2024-02-26T03:19:38;9.13;;;4.40;;
63016;SDS011;50274;45.640;11.756;2024-02-26T03:22:03;8.27;;;4.30;;
63016;SDS011;50274;45.640;11.756;2024-02-26T03:24:29;8.20;;;4.60;;
63016;SDS011;50274;45.640;11.756;2024-02-26T03:26:55;8.02;;;4.68;;
63016;SDS011;50274;45.640;11.756;2024-02-26T03:29:22;8.02;;;3.92;;
63016;SDS011;50274;45.640;11.756;2024-02-26T03:31:48;8.77;;;4.03;;
63016;SDS011;50274;45.640;11.756;2024-02-26T03:34:14;7.72;;;4.10;;
63016;SDS011;50274;45.640;11.756;2024-02-26T03:36:40;7.63;;;4.20;;
63016;SDS011;50274;45.640;11.756;2024-02-26T03:39:07;7.57;;;4.00;;
63016;SDS011;50274;45.640;11.756;2024-02-26T03:41:33;7.82;;;3.95;;
63016;SDS011;50274;45.640;11.756;2024-02-26T03:44:00;8.45;;;4.40;;
63016;SDS011;50274;45.640;11.756;2024-02-26T03:46:26;7.85;;;4.15;;
63016;SDS011;50274;45.640;11.756;2024-02-26T03:48:52;9.20;;;4.17;;
63016;SDS011;50274;45.640;11.756;2024-02-26T03:51:18;7.00;;;4.00;;
63016;SDS011;50274;45.640;11.756;2024-02-26T03:53:44;6.30;;;3.70;;
63016;SDS011;50274;45.640;11.756;2024-02-26T03:56:11;7.33;;;4.30;;
63016;SDS011;50274;45.640;11.756;2024-02-26T03:58:38;8.30;;;4.22;;
63016;SDS011;50274;45.640;11.756;2024-02-26T04:01:04;6.90;;;4.22;;
63016;SDS011;50274;45.640;11.756;2024-02-26T04:03:33;6.25;;;3.78;;
63016;SDS011;50274;45.640;11.756;2024-02-26T04:05:59;7.60;;;3.90;;
63016;SDS011;50274;45.640;11.756;2024-02-26T04:08:25;8.00;;;3.77;;
63016;SDS011;50274;45.640;11.756;2024-02-26T04:10:51;6.90;;;4.00;;
63016;SDS011;50274;45.640;11.756;2024-02-26T04:13:17;9.93;;;4.43;;
63016;SDS011;50274;45.640;11.756;2024-02-26T04:15:43;6.95;;;3.90;;
63016;SDS011;50274;45.640;11.756;2024-02-26T04:18:09;8.10;;;3.87;;
63016;SDS011;50274;45.640;11.756;2024-02-26T04:20:35;11.35;;;4.55;;
63016;SDS011;50274;45.640;11.756;2024-02-26T04:23:01;7.03;;;3.90;;
63016;SDS011;50274;45.640;11.756;2024-02-26T04:25:28;7.80;;;4.40;;
63016;SDS011;50274;45.640;11.756;2024-02-26T04:27:54;7.45;;;3.97;;
63016;SDS011;50274;45.640;11.756;2024-02-26T04:30:20;8.18;;;4.25;;
63016;SDS011;50274;45.640;11.756;2024-02-26T04:32:46;6.50;;;3.90;;
63016;SDS011;50274;45.640;11.756;2024-02-26T04:35:11;8.13;;;4.20;;
63016;SDS011;50274;45.640;11.756;2024-02-26T04:37:37;8.07;;;4.13;;
63016;SDS011;50274;45.640;11.756;2024-02-26T04:40:03;7.97;;;3.90;;
63016;SDS011;50274;45.640;11.756;2024-02-26T04:42:29;7.65;;;4.50;;
63016;SDS011;50274;45.640;11.756;2024-02-26T04:44:57;7.60;;;3.92;;
63016;SDS011;50274;45.640;11.756;2024-02-26T04:47:22;7.20;;;4.10;;
63016;SDS011;50274;45.640;11.756;2024-02-26T04:49:52;8.77;;;4.57;;
63016;SDS011;50274;45.640;11.756;2024-02-26T04:52:18;9.13;;;5.15;;
63016;SDS011;50274;45.640;11.756;2024-02-26T04:54:44;8.88;;;4.35;;
63016;SDS011;50274;45.640;11.756;2024-02-26T04:57:10;8.57;;;4.90;;
63016;SDS011;50274;45.640;11.756;2024-02-26T04:59:36;8.98;;;4.88;;
63016;SDS011;50274;45.640;11.756;2024-02-26T05:02:02;8.60;;;4.70;;
63016;SDS011;50274;45.640;11.756;2024-02-26T05:04:28;11.60;;;4.90;;
63016;SDS011;50274;45.640;11.756;2024-02-26T05:06:54;8.10;;;4.90;;
63016;SDS011;50274;45.640;11.756;2024-02-26T05:09:19;8.07;;;4.40;;
63016;SDS011;50274;45.640;11.756;2024-02-26T05:11:45;9.47;;;4.17;;
63016;SDS011;50274;45.640;11.756;2024-02-26T05:14:11;7.35;;;4.80;;
63016;SDS011;50274;45.640;11.756;2024-02-26T05:16:37;9.10;;;4.47;;
63016;SDS011;50274;45.640;11.756;2024-02-26T05:19:03;9.68;;;4.38;;
63016;SDS011;50274;45.640;11.756;2024-02-26T05:21:29;7.40;;;4.32;;
63016;SDS011;50274;45.640;11.756;2024-02-26T05:23:54;7.43;;;4.57;;
63016;SDS011;50274;45.640;11.756;2024-02-26T05:26:21;8.38;;;4.47;;
63016;SDS011;50274;45.640;11.756;2024-02-26T05:28:47;6.85;;;4.30;;
63016;SDS011;50274;45.640;11.756;2024-02-26T05:31:13;6.70;;;4.38;;
63016;SDS011;50274;45.640;11.756;2024-02-26T05:33:39;8.23;;;4.17;;
63016;SDS011;50274;45.640;11.756;2024-02-26T05:36:05;6.65;;;3.90;;
63016;SDS011;50274;45.640;11.756;2024-02-26T05:38:32;7.25;;;4.30;;
63016;SDS011;50274;45.640;11.756;2024-02-26T05:41:08;8.60;;;5.10;;
63016;SDS011;50274;45.640;11.756;2024-02-26T05:43:54;9.00;;;4.15;;
63016;SDS011;50274;45.640;11.756;2024-02-26T05:46:34;7.03;;;4.03;;
63016;SDS011;50274;45.640;11.756;2024-02-26T05:49:07;7.15;;;4.13;;
63016;SDS011;50274;45.640;11.756;2024-02-26T05:51:43;10.27;;;4.97;;
63016;SDS011;50274;45.640;11.756;2024-02-26T05:54:09;9.27;;;5.17;;
63016;SDS011;50274;45.640;11.756;2024-02-26T05:56:35;8.20;;;4.68;;
63016;SDS011;50274;45.640;11.756;2024-02-26T05:59:01;8.75;;;4.65;;
63016;SDS011;50274;45.640;11.756;2024-02-26T06:01:27;6.90;;;4.63;;
63016;SDS011;50274;45.640;11.756;2024-02-26T06:03:53;9.65;;;4.80;;
63016;SDS011;50274;45.640;11.756;2024-02-26T06:06:20;7.72;;;4.85;;
63016;SDS011;50274;45.640;11.756;2024-02-26T06:08:51;8.00;;;4.43;;
63016;SDS011;50274;45.640;11.756;2024-02-26T06:11:17;8.52;;;4.50;;
63016;SDS011;50274;45.640;11.756;2024-02-26T06:13:43;8.07;;;4.40;;
63016;SDS011;50274;45.640;11.756;2024-02-26T06:16:09;8.88;;;4.75;;
63016;SDS011;50274;45.640;11.756;2024-02-26T06:18:35;8.37;;;5.00;;
63016;SDS011;50274;45.640;11.756;2024-02-26T06:21:00;8.52;;;4.70;;
63016;SDS011;50274;45.640;11.756;2024-02-26T06:23:26;7.60;;;4.50;;
63016;SDS011;50274;45.640;11.756;2024-02-26T06:25:52;7.18;;;4.18;;
63016;SDS011;50274;45.640;11.756;2024-02-26T06:28:18;8.95;;;5.38;;
63016;SDS011;50274;45.640;11.756;2024-02-26T06:30:44;9.25;;;5.10;;
63016;SDS011;50274;45.640;11.756;2024-02-26T06:33:11;7.47;;;4.90;;
63016;SDS011;50274;45.640;11.756;2024-02-26T06:35:37;8.80;;;5.15;;
63016;SDS011;50274;45.640;11.756;2024-02-26T06:38:03;9.80;;;5.60;;
63016;SDS011;50274;45.640;11.756;2024-02-26T06:40:29;9.10;;;5.35;;
63016;SDS011;50274;45.640;11.756;2024-02-26T06:42:55;9.17;;;5.60;;
63016;SDS011;50274;45.640;11.756;2024-02-26T06:45:22;9.95;;;5.63;;
63016;SDS011;50274;45.640;11.756;2024-02-26T06:47:47;8.88;;;5.10;;
63016;SDS011;50274;45.640;11.756;2024-02-26T06:50:13;9.30;;;5.30;;
63016;SDS011;50274;45.640;11.756;2024-02-26T06:52:44;9.10;;;5.55;;
63016;SDS011;50274;45.640;11.756;2024-02-26T06:55:13;8.98;;;5.13;;
63016;SDS011;50274;45.640;11.756;2024-02-26T06:57:39;11.30;;;5.35;;
63016;SDS011;50274;45.640;11.756;2024-02-26T07:00:05;10.53;;;5.40;;
63016;SDS011;50274;45.640;11.756;2024-02-26T07:02:31;9.93;;;5.43;;
63016;SDS011;50274;45.640;11.756;2024-02-26T07:04:57;12.80;;;6.00;;
63016;SDS011;50274;45.640;11.756;2024-02-26T07:07:24;11.85;;;6.47;;
63016;SDS011;50274;45.640;11.756;2024-02-26T07:09:50;12.37;;;7.43;;
63016;SDS011;50274;45.640;11.756;2024-02-26T07:12:16;10.93;;;5.70;;
63016;SDS011;50274;45.640;11.756;2024-02-26T07:14:42;10.82;;;6.95;;
63016;SDS011;50274;45.640;11.756;2024-02-26T07:17:08;12.27;;;6.80;;
63016;SDS011;50274;45.640;11.756;2024-02-26T07:19:34;11.07;;;6.80;;
63016;SDS011;50274;45.640;11.756;2024-02-26T07:22:00;10.40;;;6.07;;
63016;SDS011;50274;45.640;11.756;2024-02-26T07:24:27;9.40;;;6.20;;
63016;SDS011;50274;45.640;11.756;2024-02-26T07:26:53;9.98;;;6.10;;
63016;SDS011;50274;45.640;11.756;2024-02-26T07:29:20;11.75;;;6.93;;
63016;SDS011;50274;45.640;11.756;2024-02-26T07:31:47;9.68;;;6.05;;
63016;SDS011;50274;45.640;11.756;2024-02-26T07:34:12;10.75;;;6.95;;
63016;SDS011;50274;45.640;11.756;2024-02-26T07:36:39;12.33;;;7.43;;
63016;SDS011;50274;45.640;11.756;2024-02-26T07:39:05;11.90;;;7.05;;
63016;SDS011;50274;45.640;11.756;2024-02-26T07:41:31;10.00;;;6.70;;
63016;SDS011;50274;45.640;11.756;2024-02-26T07:43:58;10.90;;;6.55;;
63016;SDS011;50274;45.640;11.756;2024-02-26T07:46:24;14.47;;;6.67;;
63016;SDS011;50274;45.640;11.756;2024-02-26T07:48:50;11.15;;;6.50;;
63016;SDS011;50274;45.640;11.756;2024-02-26T07:51:15;11.98;;;6.60;;
63016;SDS011;50274;45.640;11.756;2024-02-26T07:53:42;10.60;;;6.37;;
63016;SDS011;50274;45.640;11.756;2024-02-26T07:56:08;10.85;;;6.10;;
63016;SDS011;50274;45.640;11.756;2024-02-26T07:58:34;12.32;;;6.35;;
63016;SDS011;50274;45.640;11.756;2024-02-26T08:01:00;11.27;;;6.43;;
63016;SDS011;50274;45.640;11.756;2024-02-26T08:03:26;10.07;;;6.23;;
63016;SDS011;50274;45.640;11.756;2024-02-26T08:05:52;10.10;;;5.72;;
63016;SDS011;50274;45.640;11.756;2024-02-26T08:08:18;10.70;;;6.63;;
63016;SDS011;50274;45.640;11.756;2024-02-26T08:10:44;10.17;;;6.60;;
63016;SDS011;50274;45.640;11.756;2024-02-26T08:13:10;11.57;;;6.20;;
63016;SDS011;50274;45.640;11.756;2024-02-26T08:15:36;10.25;;;6.38;;
63016;SDS011;50274;45.640;11.756;2024-02-26T08:18:05;10.75;;;5.70;;
63016;SDS011;50274;45.640;11.756;2024-02-26T08:20:31;11.18;;;6.07;;
63016;SDS011;50274;45.640;11.756;2024-02-26T08:22:57;11.90;;;6.47;;
63016;SDS011;50274;45.640;11.756;2024-02-26T08:25:23;13.95;;;6.93;;
63016;SDS011;50274;45.640;11.756;2024-02-26T08:27:49;10.25;;;5.88;;
63016;SDS011;50274;45.640;11.756;2024-02-26T08:30:16;11.35;;;5.85;;
63016;SDS011;50274;45.640;11.756;2024-02-26T08:32:45;10.93;;;6.03;;
63016;SDS011;50274;45.640;11.756;2024-02-26T08:35:12;9.03;;;5.00;;
63016;SDS011;50274;45.640;11.756;2024-02-26T08:37:38;10.35;;;5.45;;
63016;SDS011;50274;45.640;11.756;2024-02-26T08:40:05;11.45;;;5.93;;
63016;SDS011;50274;45.640;11.756;2024-02-26T08:42:31;12.75;;;5.43;;
63016;SDS011;50274;45.640;11.756;2024-02-26T08:44:57;10.27;;;5.03;;
63016;SDS011;50274;45.640;11.756;2024-02-26T08:47:25;11.95;;;4.57;;
63016;SDS011;50274;45.640;11.756;2024-02-26T08:49:51;11.25;;;5.18;;
63016;SDS011;50274;45.640;11.756;2024-02-26T08:52:17;10.80;;;4.73;;
63016;SDS011;50274;45.640;11.756;2024-02-26T08:54:43;9.75;;;4.90;;
63016;SDS011;50274;45.640;11.756;2024-02-26T08:57:08;9.65;;;4.97;;
63016;SDS011;50274;45.640;11.756;2024-02-26T08:59:34;10.13;;;5.40;;
63016;SDS011;50274;45.640;11.756;2024-02-26T09:02:00;12.05;;;4.70;;
63016;SDS011;50274;45.640;11.756;2024-02-26T09:04:26;9.77;;;4.75;;
63016;SDS011;50274;45.640;11.756;2024-02-26T09:06:52;10.68;;;4.82;;
63016;SDS011;50274;45.640;11.756;2024-02-26T09:09:19;9.17;;;4.30;;
63016;SDS011;50274;45.640;11.756;2024-02-26T09:11:45;8.82;;;4.70;;
63016;SDS011;50274;45.640;11.756;2024-02-26T09:14:12;11.48;;;4.30;;
63016;SDS011;50274;45.640;11.756;2024-02-26T09:16:38;11.30;;;4.60;;
63016;SDS011;50274;45.640;11.756;2024-02-26T09:19:03;8.37;;;4.70;;
63016;SDS011;50274;45.640;11.756;2024-02-26T09:21:29;10.98;;;4.50;;
63016;SDS011;50274;45.640;11.756;2024-02-26T09:23:55;9.73;;;4.55;;
63016;SDS011;50274;45.640;11.756;2024-02-26T09:26:21;10.02;;;4.93;;
63016;SDS011;50274;45.640;11.756;2024-02-26T09:28:47;9.07;;;5.13;;
63016;SDS011;50274;45.640;11.756;2024-02-26T09:31:14;10.25;;;5.40;;
63016;SDS011;50274;45.640;11.756;2024-02-26T09:33:42;13.38;;;5.25;;
63016;SDS011;50274;45.640;11.756;2024-02-26T09:36:07;10.55;;;5.47;;
63016;SDS011;50274;45.640;11.756;2024-02-26T09:38:35;11.70;;;5.27;;
63016;SDS011;50274;45.640;11.756;2024-02-26T09:41:03;10.38;;;5.00;;
63016;SDS011;50274;45.640;11.756;2024-02-26T09:43:36;8.65;;;4.80;;
63016;SDS011;50274;45.640;11.756;2024-02-26T09:46:07;8.55;;;4.72;;
63016;SDS011;50274;45.640;11.756;2024-02-26T09:48:34;10.93;;;4.50;;
63016;SDS011;50274;45.640;11.756;2024-02-26T09:51:01;7.80;;;4.30;;
63016;SDS011;50274;45.640;11.756;2024-02-26T09:53:29;7.70;;;3.90;;
63016;SDS011;50274;45.640;11.756;2024-02-26T09:55:57;8.93;;;4.28;;
63016;SDS011;50274;45.640;11.756;2024-02-26T09:58:24;13.10;;;4.63;;
63016;SDS011;50274;45.640;11.756;2024-02-26T10:00:56;9.35;;;4.20;;
63016;SDS011;50274;45.640;11.756;2024-02-26T10:03:27;12.33;;;4.20;;
63016;SDS011;50274;45.640;11.756;2024-02-26T10:05:56;8.88;;;3.83;;
63016;SDS011;50274;45.640;11.756;2024-02-26T10:08:23;8.55;;;4.03;;
63016;SDS011;50274;45.640;11.756;2024-02-26T10:10:50;7.43;;;3.50;;
63016;SDS011;50274;45.640;11.756;2024-02-26T10:13:16;10.05;;;5.05;;
63016;SDS011;50274;45.640;11.756;2024-02-26T10:15:42;13.67;;;4.83;;
63016;SDS011;50274;45.640;11.756;2024-02-26T10:18:08;9.45;;;5.22;;
63016;SDS011;50274;45.640;11.756;2024-02-26T10:20:34;9.10;;;4.30;;
63016;SDS011;50274;45.640;11.756;2024-02-26T10:23:03;9.73;;;3.80;;
63016;SDS011;50274;45.640;11.756;2024-02-26T10:25:30;7.68;;;4.13;;
63016;SDS011;50274;45.640;11.756;2024-02-26T10:27:59;8.15;;;4.22;;
63016;SDS011;50274;45.640;11.756;2024-02-26T10:30:29;7.63;;;4.20;;
63016;SDS011;50274;45.640;11.756;2024-02-26T10:32:56;8.27;;;4.60;;
63016;SDS011;50274;45.640;11.756;2024-02-26T10:35:23;8.70;;;4.20;;
63016;SDS011;50274;45.640;11.756;2024-02-26T10:37:49;9.65;;;4.13;;
63016;SDS011;50274;45.640;11.756;2024-02-26T10:40:16;9.23;;;4.38;;
63016;SDS011;50274;45.640;11.756;2024-02-26T10:42:42;8.07;;;4.10;;
63016;SDS011;50274;45.640;11.756;2024-02-26T10:45:10;9.15;;;4.13;;
63016;SDS011;50274;45.640;11.756;2024-02-26T10:47:36;8.83;;;3.97;;
63016;SDS011;50274;45.640;11.756;2024-02-26T10:50:02;9.18;;;4.32;;
63016;SDS011;50274;45.640;11.756;2024-02-26T10:52:33;8.43;;;3.63;;
63016;SDS011;50274;45.640;11.756;2024-02-26T10:55:00;8.40;;;3.90;;
63016;SDS011;50274;45.640;11.756;2024-02-26T10:57:38;9.43;;;4.00;;
63016;SDS011;50274;45.640;11.756;2024-02-26T11:00:06;8.18;;;4.18;;
63016;SDS011;50274;45.640;11.756;2024-02-26T11:02:35;7.20;;;3.47;;
63016;SDS011;50274;45.640;11.756;2024-02-26T11:05:05;12.68;;;4.65;;
63016;SDS011;50274;45.640;11.756;2024-02-26T11:07:32;9.15;;;4.68;;
63016;SDS011;50274;45.640;11.756;2024-02-26T11:10:02;8.73;;;4.87;;
63016;SDS011;50274;45.640;11.756;2024-02-26T11:12:30;9.15;;;4.20;;
63016;SDS011;50274;45.640;11.756;2024-02-26T11:14:58;11.23;;;4.25;;
63016;SDS011;50274;45.640;11.756;2024-02-26T11:17:27;9.07;;;4.50;;
63016;SDS011;50274;45.640;11.756;2024-02-26T11:19:56;9.27;;;4.50;;
63016;SDS011;50274;45.640;11.756;2024-02-26T11:22:26;9.17;;;4.77;;
63016;SDS011;50274;45.640;11.756;2024-02-26T11:24:52;10.65;;;4.22;;
63016;SDS011;50274;45.640;11.756;2024-02-26T11:27:43;8.68;;;4.20;;
63016;SDS011;50274;45.640;11.756;2024-02-26T11:30:14;9.98;;;4.53;;
63016;SDS011;50274;45.640;11.756;2024-02-26T11:32:45;10.57;;;4.80;;
63016;SDS011;50274;45.640;11.756;2024-02-26T11:35:12;8.23;;;3.93;;
63016;SDS011;50274;45.640;11.756;2024-02-26T11:37:40;10.15;;;4.40;;
63016;SDS011;50274;45.640;11.756;2024-02-26T11:40:13;9.52;;;4.63;;
63016;SDS011;50274;45.640;11.756;2024-02-26T11:42:45;8.57;;;4.50;;
63016;SDS011;50274;45.640;11.756;2024-02-26T11:46:14;8.07;;;4.80;;
63016;SDS011;50274;45.640;11.756;2024-02-26T11:48:13;7.80;;;4.53;;
63016;SDS011;50274;45.640;11.756;2024-02-26T11:50:40;7.45;;;4.25;;
63016;SDS011;50274;45.640;11.756;2024-02-26T11:55:47;12.13;;;4.22;;
63016;SDS011;50274;45.640;11.756;2024-02-26T11:58:14;8.90;;;4.13;;
63016;SDS011;50274;45.640;11.756;2024-02-26T12:00:40;8.23;;;4.60;;
63016;SDS011;50274;45.640;11.756;2024-02-26T12:03:06;8.85;;;4.53;;
63016;SDS011;50274;45.640;11.756;2024-02-26T12:05:35;7.75;;;4.38;;
63016;SDS011;50274;45.640;11.756;2024-02-26T12:08:04;9.82;;;5.03;;
63016;SDS011;50274;45.640;11.756;2024-02-26T12:10:38;7.43;;;4.53;;
63016;SDS011;50274;45.640;11.756;2024-02-26T12:13:13;12.53;;;4.57;;
63016;SDS011;50274;45.640;11.756;2024-02-26T12:15:47;10.98;;;5.15;;
63016;SDS011;50274;45.640;11.756;2024-02-26T12:18:21;8.25;;;4.70;;
63016;SDS011;50274;45.640;11.756;2024-02-26T12:20:57;10.15;;;4.53;;
63016;SDS011;50274;45.640;11.756;2024-02-26T12:23:27;9.73;;;5.00;;
63016;SDS011;50274;45.640;11.756;2024-02-26T12:25:53;7.90;;;3.87;;
63016;SDS011;50274;45.640;11.756;2024-02-26T12:28:27;8.73;;;4.22;;
63016;SDS011;50274;45.640;11.756;2024-02-26T12:30:54;9.68;;;4.72;;
63016;SDS011;50274;45.640;11.756;2024-02-26T12:33:20;8.32;;;4.57;;
63016;SDS011;50274;45.640;11.756;2024-02-26T12:35:45;11.37;;;4.60;;
63016;SDS011;50274;45.640;11.756;2024-02-26T12:38:14;8.05;;;4.53;;
63016;SDS011;50274;45.640;11.756;2024-02-26T12:40:40;10.55;;;5.07;;
63016;SDS011;50274;45.640;11.756;2024-02-26T12:43:06;8.50;;;4.22;;
63016;SDS011;50274;45.640;11.756;2024-02-26T12:45:39;12.95;;;4.93;;
63016;SDS011;50274;45.640;11.756;2024-02-26T12:48:05;10.13;;;4.33;;
63016;SDS011;50274;45.640;11.756;2024-02-26T12:50:32;7.32;;;4.53;;
63016;SDS011;50274;45.640;11.756;2024-02-26T12:52:58;8.77;;;4.53;;
63016;SDS011;50274;45.640;11.756;2024-02-26T12:55:24;9.45;;;4.53;;
63016;SDS011;50274;45.640;11.756;2024-02-26T12:57:51;7.33;;;4.07;;
63016;SDS011;50274;45.640;11.756;2024-02-26T13:00:21;11.98;;;4.85;;
63016;SDS011;50274;45.640;11.756;2024-02-26T13:02:51;9.68;;;4.35;;
63016;SDS011;50274;45.640;11.756;2024-02-26T13:05:17;11.75;;;4.50;;
63016;SDS011;50274;45.640;11.756;2024-02-26T13:07:45;10.00;;;4.20;;
63016;SDS011;50274;45.640;11.756;2024-02-26T13:10:16;8.77;;;4.33;;
63016;SDS011;50274;45.640;11.756;2024-02-26T13:12:46;8.52;;;3.33;;
63016;SDS011;50274;45.640;11.756;2024-02-26T13:15:16;6.95;;;4.13;;
63016;SDS011;50274;45.640;11.756;2024-02-26T13:17:43;7.30;;;3.60;;
63016;SDS011;50274;45.640;11.756;2024-02-26T13:20:10;7.18;;;3.78;;
63016;SDS011;50274;45.640;11.756;2024-02-26T13:22:36;7.80;;;4.07;;
63016;SDS011;50274;45.640;11.756;2024-02-26T13:25:02;9.07;;;3.78;;
63016;SDS011;50274;45.640;11.756;2024-02-26T13:27:28;7.97;;;3.83;;
63016;SDS011;50274;45.640;11.756;2024-02-26T13:30:08;7.88;;;4.03;;
63016;SDS011;50274;45.640;11.756;2024-02-26T13:32:44;8.30;;;3.75;;
63016;SDS011;50274;45.640;11.756;2024-02-26T13:35:12;8.10;;;4.20;;
63016;SDS011;50274;45.640;11.756;2024-02-26T13:37:39;9.25;;;4.15;;
63016;SDS011;50274;45.640;11.756;2024-02-26T13:40:07;6.55;;;3.50;;
63016;SDS011;50274;45.640;11.756;2024-02-26T13:42:37;8.88;;;3.80;;
63016;SDS011;50274;45.640;11.756;2024-02-26T13:45:04;8.88;;;3.88;;
63016;SDS011;50274;45.640;11.756;2024-02-26T13:47:34;7.03;;;3.13;;
63016;SDS011;50274;45.640;11.756;2024-02-26T13:50:00;7.70;;;3.28;;
63016;SDS011;50274;45.640;11.756;2024-02-26T13:52:26;7.45;;;4.00;;
63016;SDS011;50274;45.640;11.756;2024-02-26T13:54:53;8.55;;;3.65;;
63016;SDS011;50274;45.640;11.756;2024-02-26T13:57:19;8.10;;;3.65;;
63016;SDS011;50274;45.640;11.756;2024-02-26T13:59:45;9.57;;;3.83;;
63016;SDS011;50274;45.640;11.756;2024-02-26T14:02:11;7.53;;;3.50;;
63016;SDS011;50274;45.640;11.756;2024-02-26T14:04:37;8.15;;;4.00;;
63016;SDS011;50274;45.640;11.756;2024-02-26T14:07:04;7.47;;;3.90;;
63016;SDS011;50274;45.640;11.756;2024-02-26T14:09:30;10.70;;;4.50;;
63016;SDS011;50274;45.640;11.756;2024-02-26T14:11:57;8.50;;;4.40;;
63016;SDS011;50274;45.640;11.756;2024-02-26T14:14:24;12.65;;;5.07;;
63016;SDS011;50274;45.640;11.756;2024-02-26T14:16:51;7.97;;;4.07;;
63016;SDS011;50274;45.640;11.756;2024-02-26T14:19:17;12.15;;;4.93;;
63016;SDS011;50274;45.640;11.756;2024-02-26T14:21:43;8.43;;;4.33;;
63016;SDS011;50274;45.640;11.756;2024-02-26T14:24:09;9.10;;;4.80;;
63016;SDS011;50274;45.640;11.756;2024-02-26T14:26:34;6.97;;;4.28;;
63016;SDS011;50274;45.640;11.756;2024-02-26T14:29:00;12.43;;;4.53;;
63016;SDS011;50274;45.640;11.756;2024-02-26T14:31:26;10.77;;;5.03;;
63016;SDS011;50274;45.640;11.756;2024-02-26T14:33:52;10.27;;;4.77;;